sensor_id;sensor_type;location;lat;lon;timestamp;P1;durP1;ratioP1;P2;durP2;ratioP2
46925;SDS011;32667;48.248;-1.700;2022-07-23T00:00:17;0.17;;;0.17;;
46925;SDS011;32667;48.248;-1.700;2022-07-23T00:02:43;0.20;;;0.20;;
46925;SDS011;32667;48.248;-1.700;2022-07-23T00:05:09;0.20;;;0.20;;
46925;SDS011;32667;48.248;-1.700;2022-07-23T00:07:36;0.13;;;0.13;;
46925;SDS011;32667;48.248;-1.700;2022-07-23T00:10:03;0.20;;;0.20;;
46925;SDS011;32667;48.248;-1.700;2022-07-23T00:12:29;0.20;;;0.20;;
46925;SDS011;32667;48.248;-1.700;2022-07-23T00:14:55;0.20;;;0.20;;
46925;SDS011;32667;48.248;-1.700;2022-07-23T00:17:20;0.20;;;0.20;;
46925;SDS011;32667;48.248;-1.700;2022-07-23T00:19:46;0.17;;;0.17;;
46925;SDS011;32667;48.248;-1.700;2022-07-23T00:22:12;0.17;;;0.17;;
46925;SDS011;32667;48.248;-1.700;2022-07-23T00:24:38;0.20;;;0.20;;
46925;SDS011;32667;48.248;-1.700;2022-07-23T00:27:04;0.20;;;0.20;;
46925;SDS011;32667;48.248;-1.700;2022-07-23T00:29:29;0.10;;;0.10;;
46925;SDS011;32667;48.248;-1.700;2022-07-23T00:31:55;0.20;;;0.20;;
46925;SDS011;32667;48.248;-1.700;2022-07-23T00:34:21;0.20;;;0.20;;
46925;SDS011;32667;48.248;-1.700;2022-07-23T00:36:47;0.20;;;0.20;;
46925;SDS011;32667;48.248;-1.700;2022-07-23T00:39:13;0.20;;;0.20;;
46925;SDS011;32667;48.248;-1.700;2022-07-23T00:41:38;0.20;;;0.20;;
46925;SDS011;32667;48.248;-1.700;2022-07-23T00:44:13;0.20;;;0.20;;
46925;SDS011;32667;48.248;-1.700;2022-07-23T00:46:53;0.20;;;0.20;;
46925;SDS011;32667;48.248;-1.700;2022-07-23T00:49:21;0.20;;;0.20;;
46925;SDS011;32667;48.248;-1.700;2022-07-23T00:51:48;0.20;;;0.20;;
46925;SDS011;32667;48.248;-1.700;2022-07-23T00:54:15;0.20;;;0.20;;
46925;SDS011;32667;48.248;-1.700;2022-07-23T00:56:46;0.20;;;0.20;;
46925;SDS011;32667;48.248;-1.700;2022-07-23T00:59:12;0.20;;;0.20;;
46925;SDS011;32667;48.248;-1.700;2022-07-23T01:01:38;0.20;;;0.20;;
46925;SDS011;32667;48.248;-1.700;2022-07-23T01:04:04;0.20;;;0.20;;
46925;SDS011;32667;48.248;-1.700;2022-07-23T01:06:32;0.20;;;0.20;;
46925;SDS011;32667;48.248;-1.700;2022-07-23T01:09:01;0.20;;;0.20;;
46925;SDS011;32667;48.248;-1.700;2022-07-23T01:11:27;0.20;;;0.20;;
46925;SDS011;32667;48.248;-1.700;2022-07-23T01:13:54;0.20;;;0.20;;
46925;SDS011;32667;48.248;-1.700;2022-07-23T01:16:20;0.20;;;0.20;;
46925;SDS011;32667;48.248;-1.700;2022-07-23T01:18:45;0.20;;;0.20;;
46925;SDS011;32667;48.248;-1.700;2022-07-23T01:21:12;0.10;;;0.10;;
46925;SDS011;32667;48.248;-1.700;2022-07-23T01:23:38;0.20;;;0.20;;
46925;SDS011;32667;48.248;-1.700;2022-07-23T01:26:04;0.20;;;0.20;;
46925;SDS011;32667;48.248;-1.700;2022-07-23T01:28:30;0.20;;;0.20;;
46925;SDS011;32667;48.248;-1.700;2022-07-23T01:30:55;0.20;;;0.20;;
46925;SDS011;32667;48.248;-1.700;2022-07-23T01:33:21;0.20;;;0.20;;
46925;SDS011;32667;48.248;-1.700;2022-07-23T01:35:47;0.20;;;0.20;;
46925;SDS011;32667;48.248;-1.700;2022-07-23T01:38:13;0.20;;;0.20;;
46925;SDS011;32667;48.248;-1.700;2022-07-23T01:40:38;0.20;;;0.20;;
46925;SDS011;32667;48.248;-1.700;2022-07-23T01:43:04;0.20;;;0.20;;
46925;SDS011;32667;48.248;-1.700;2022-07-23T01:45:30;0.20;;;0.20;;
46925;SDS011;32667;48.248;-1.700;2022-07-23T01:47:56;0.20;;;0.20;;
46925;SDS011;32667;48.248;-1.700;2022-07-23T01:50:22;0.20;;;0.20;;
46925;SDS011;32667;48.248;-1.700;2022-07-23T01:52:48;0.20;;;0.20;;
46925;SDS011;32667;48.248;-1.700;2022-07-23T01:55:13;0.20;;;0.20;;
46925;SDS011;32667;48.248;-1.700;2022-07-23T01:57:39;0.20;;;0.20;;
46925;SDS011;32667;48.248;-1.700;2022-07-23T02:00:05;0.20;;;0.20;;
46925;SDS011;32667;48.248;-1.700;2022-07-23T02:02:31;0.20;;;0.20;;
46925;SDS011;32667;48.248;-1.700;2022-07-23T02:04:57;0.20;;;0.20;;
46925;SDS011;32667;48.248;-1.700;2022-07-23T02:07:23;0.20;;;0.20;;
46925;SDS011;32667;48.248;-1.700;2022-07-23T02:09:49;0.20;;;0.20;;
46925;SDS011;32667;48.248;-1.700;2022-07-23T02:12:14;0.20;;;0.20;;
46925;SDS011;32667;48.248;-1.700;2022-07-23T02:14:40;0.20;;;0.20;;
46925;SDS011;32667;48.248;-1.700;2022-07-23T02:17:06;0.20;;;0.20;;
46925;SDS011;32667;48.248;-1.700;2022-07-23T02:19:32;0.20;;;0.20;;
46925;SDS011;32667;48.248;-1.700;2022-07-23T02:21:57;0.20;;;0.20;;
46925;SDS011;32667;48.248;-1.700;2022-07-23T02:24:23;0.20;;;0.20;;
46925;SDS011;32667;48.248;-1.700;2022-07-23T02:26:49;0.20;;;0.20;;
46925;SDS011;32667;48.248;-1.700;2022-07-23T02:29:15;0.20;;;0.20;;
46925;SDS011;32667;48.248;-1.700;2022-07-23T02:31:41;0.20;;;0.20;;
46925;SDS011;32667;48.248;-1.700;2022-07-23T02:34:07;0.20;;;0.20;;
46925;SDS011;32667;48.248;-1.700;2022-07-23T02:36:32;0.20;;;0.20;;
46925;SDS011;32667;48.248;-1.700;2022-07-23T02:38:58;0.20;;;0.20;;
46925;SDS011;32667;48.248;-1.700;2022-07-23T02:41:24;0.20;;;0.20;;
46925;SDS011;32667;48.248;-1.700;2022-07-23T02:43:50;0.20;;;0.20;;
46925;SDS011;32667;48.248;-1.700;2022-07-23T02:46:15;0.20;;;0.20;;
46925;SDS011;32667;48.248;-1.700;2022-07-23T02:48:41;0.22;;;0.22;;
46925;SDS011;32667;48.248;-1.700;2022-07-23T02:51:07;0.20;;;0.20;;
46925;SDS011;32667;48.248;-1.700;2022-07-23T02:53:33;0.20;;;0.20;;
46925;SDS011;32667;48.248;-1.700;2022-07-23T02:55:59;0.20;;;0.20;;
46925;SDS011;32667;48.248;-1.700;2022-07-23T02:58:25;0.20;;;0.20;;
46925;SDS011;32667;48.248;-1.700;2022-07-23T03:00:52;0.20;;;0.20;;
46925;SDS011;32667;48.248;-1.700;2022-07-23T03:03:18;0.20;;;0.20;;
46925;SDS011;32667;48.248;-1.700;2022-07-23T03:05:43;0.20;;;0.20;;
46925;SDS011;32667;48.248;-1.700;2022-07-23T03:08:09;0.20;;;0.20;;
46925;SDS011;32667;48.248;-1.700;2022-07-23T03:10:35;0.20;;;0.20;;
46925;SDS011;32667;48.248;-1.700;2022-07-23T03:13:01;0.20;;;0.20;;
46925;SDS011;32667;48.248;-1.700;2022-07-23T03:15:27;0.20;;;0.20;;
46925;SDS011;32667;48.248;-1.700;2022-07-23T03:17:53;0.20;;;0.20;;
46925;SDS011;32667;48.248;-1.700;2022-07-23T03:20:18;0.20;;;0.20;;
46925;SDS011;32667;48.248;-1.700;2022-07-23T03:22:44;0.20;;;0.20;;
46925;SDS011;32667;48.248;-1.700;2022-07-23T03:25:10;0.20;;;0.20;;
46925;SDS011;32667;48.248;-1.700;2022-07-23T03:27:36;0.20;;;0.20;;
46925;SDS011;32667;48.248;-1.700;2022-07-23T03:30:02;0.20;;;0.20;;
46925;SDS011;32667;48.248;-1.700;2022-07-23T03:32:28;0.20;;;0.20;;
46925;SDS011;32667;48.248;-1.700;2022-07-23T03:34:54;0.20;;;0.20;;
46925;SDS011;32667;48.248;-1.700;2022-07-23T03:37:20;0.20;;;0.20;;
46925;SDS011;32667;48.248;-1.700;2022-07-23T03:39:46;0.20;;;0.20;;
46925;SDS011;32667;48.248;-1.700;2022-07-23T03:42:12;0.20;;;0.20;;
46925;SDS011;32667;48.248;-1.700;2022-07-23T03:44:38;0.20;;;0.20;;
46925;SDS011;32667;48.248;-1.700;2022-07-23T03:47:04;0.10;;;0.10;;
46925;SDS011;32667;48.248;-1.700;2022-07-23T03:49:31;0.20;;;0.20;;
46925;SDS011;32667;48.248;-1.700;2022-07-23T03:51:57;0.10;;;0.10;;
46925;SDS011;32667;48.248;-1.700;2022-07-23T03:54:23;0.20;;;0.20;;
46925;SDS011;32667;48.248;-1.700;2022-07-23T03:56:48;0.20;;;0.20;;
46925;SDS011;32667;48.248;-1.700;2022-07-23T03:59:14;0.20;;;0.20;;
46925;SDS011;32667;48.248;-1.700;2022-07-23T04:01:40;0.20;;;0.20;;
46925;SDS011;32667;48.248;-1.700;2022-07-23T04:04:06;0.20;;;0.20;;
46925;SDS011;32667;48.248;-1.700;2022-07-23T04:06:33;0.20;;;0.20;;
46925;SDS011;32667;48.248;-1.700;2022-07-23T04:09:00;0.10;;;0.10;;
46925;SDS011;32667;48.248;-1.700;2022-07-23T04:11:26;0.20;;;0.20;;
46925;SDS011;32667;48.248;-1.700;2022-07-23T04:13:51;0.20;;;0.20;;
46925;SDS011;32667;48.248;-1.700;2022-07-23T04:16:17;0.20;;;0.20;;
46925;SDS011;32667;48.248;-1.700;2022-07-23T04:18:43;0.20;;;0.20;;
46925;SDS011;32667;48.248;-1.700;2022-07-23T04:21:09;0.20;;;0.20;;
46925;SDS011;32667;48.248;-1.700;2022-07-23T04:23:35;0.20;;;0.20;;
46925;SDS011;32667;48.248;-1.700;2022-07-23T04:26:00;0.20;;;0.20;;
46925;SDS011;32667;48.248;-1.700;2022-07-23T04:28:26;0.20;;;0.20;;
46925;SDS011;32667;48.248;-1.700;2022-07-23T04:30:52;0.20;;;0.20;;
46925;SDS011;32667;48.248;-1.700;2022-07-23T04:33:20;0.20;;;0.20;;
46925;SDS011;32667;48.248;-1.700;2022-07-23T04:35:46;0.20;;;0.20;;
46925;SDS011;32667;48.248;-1.700;2022-07-23T04:38:12;0.20;;;0.20;;
46925;SDS011;32667;48.248;-1.700;2022-07-23T04:40:38;0.20;;;0.20;;
46925;SDS011;32667;48.248;-1.700;2022-07-23T04:43:03;0.20;;;0.20;;
46925;SDS011;32667;48.248;-1.700;2022-07-23T04:45:30;0.20;;;0.20;;
46925;SDS011;32667;48.248;-1.700;2022-07-23T04:47:56;0.20;;;0.20;;
46925;SDS011;32667;48.248;-1.700;2022-07-23T04:50:22;0.10;;;0.10;;
46925;SDS011;32667;48.248;-1.700;2022-07-23T04:52:48;0.20;;;0.20;;
46925;SDS011;32667;48.248;-1.700;2022-07-23T04:55:14;0.20;;;0.20;;
46925;SDS011;32667;48.248;-1.700;2022-07-23T04:57:40;0.20;;;0.20;;
46925;SDS011;32667;48.248;-1.700;2022-07-23T05:00:06;0.17;;;0.17;;
46925;SDS011;32667;48.248;-1.700;2022-07-23T05:02:35;0.20;;;0.20;;
46925;SDS011;32667;48.248;-1.700;2022-07-23T05:05:01;0.20;;;0.20;;
46925;SDS011;32667;48.248;-1.700;2022-07-23T05:07:26;0.10;;;0.10;;
46925;SDS011;32667;48.248;-1.700;2022-07-23T05:09:52;0.20;;;0.20;;
46925;SDS011;32667;48.248;-1.700;2022-07-23T05:12:18;0.20;;;0.20;;
46925;SDS011;32667;48.248;-1.700;2022-07-23T05:14:44;0.20;;;0.20;;
46925;SDS011;32667;48.248;-1.700;2022-07-23T05:17:09;0.20;;;0.20;;
46925;SDS011;32667;48.248;-1.700;2022-07-23T05:19:35;0.20;;;0.20;;
46925;SDS011;32667;48.248;-1.700;2022-07-23T05:22:01;0.20;;;0.20;;
46925;SDS011;32667;48.248;-1.700;2022-07-23T05:24:27;0.20;;;0.20;;
46925;SDS011;32667;48.248;-1.700;2022-07-23T05:26:52;0.20;;;0.20;;
46925;SDS011;32667;48.248;-1.700;2022-07-23T05:29:18;0.20;;;0.20;;
46925;SDS011;32667;48.248;-1.700;2022-07-23T05:31:45;0.20;;;0.20;;
46925;SDS011;32667;48.248;-1.700;2022-07-23T05:34:11;0.20;;;0.20;;
46925;SDS011;32667;48.248;-1.700;2022-07-23T05:36:36;0.20;;;0.20;;
46925;SDS011;32667;48.248;-1.700;2022-07-23T05:39:03;0.20;;;0.20;;
46925;SDS011;32667;48.248;-1.700;2022-07-23T05:41:28;0.20;;;0.20;;
46925;SDS011;32667;48.248;-1.700;2022-07-23T05:43:54;0.20;;;0.20;;
46925;SDS011;32667;48.248;-1.700;2022-07-23T05:46:20;0.20;;;0.20;;
46925;SDS011;32667;48.248;-1.700;2022-07-23T05:48:46;0.20;;;0.20;;
46925;SDS011;32667;48.248;-1.700;2022-07-23T05:51:19;0.20;;;0.20;;
46925;SDS011;32667;48.248;-1.700;2022-07-23T05:53:48;0.20;;;0.20;;
46925;SDS011;32667;48.248;-1.700;2022-07-23T05:56:15;0.20;;;0.20;;
46925;SDS011;32667;48.248;-1.700;2022-07-23T05:58:41;0.20;;;0.20;;
46925;SDS011;32667;48.248;-1.700;2022-07-23T06:01:07;0.20;;;0.20;;
46925;SDS011;32667;48.248;-1.700;2022-07-23T06:03:33;0.20;;;0.20;;
46925;SDS011;32667;48.248;-1.700;2022-07-23T06:05:59;0.20;;;0.20;;
46925;SDS011;32667;48.248;-1.700;2022-07-23T06:08:25;0.13;;;0.13;;
46925;SDS011;32667;48.248;-1.700;2022-07-23T06:10:50;0.10;;;0.10;;
46925;SDS011;32667;48.248;-1.700;2022-07-23T06:13:19;0.10;;;0.10;;
46925;SDS011;32667;48.248;-1.700;2022-07-23T06:15:45;0.20;;;0.20;;
46925;SDS011;32667;48.248;-1.700;2022-07-23T06:18:11;0.20;;;0.20;;
46925;SDS011;32667;48.248;-1.700;2022-07-23T06:20:37;0.10;;;0.10;;
46925;SDS011;32667;48.248;-1.700;2022-07-23T06:23:03;0.20;;;0.20;;
46925;SDS011;32667;48.248;-1.700;2022-07-23T06:25:29;0.20;;;0.20;;
46925;SDS011;32667;48.248;-1.700;2022-07-23T06:27:55;0.20;;;0.20;;
46925;SDS011;32667;48.248;-1.700;2022-07-23T06:30:21;0.20;;;0.20;;
46925;SDS011;32667;48.248;-1.700;2022-07-23T06:32:47;0.20;;;0.20;;
46925;SDS011;32667;48.248;-1.700;2022-07-23T06:35:13;0.20;;;0.20;;
46925;SDS011;32667;48.248;-1.700;2022-07-23T06:37:40;0.20;;;0.20;;
46925;SDS011;32667;48.248;-1.700;2022-07-23T06:40:06;0.20;;;0.20;;
46925;SDS011;32667;48.248;-1.700;2022-07-23T06:42:32;0.20;;;0.20;;
46925;SDS011;32667;48.248;-1.700;2022-07-23T06:44:58;0.20;;;0.20;;
46925;SDS011;32667;48.248;-1.700;2022-07-23T06:47:24;0.17;;;0.17;;
46925;SDS011;32667;48.248;-1.700;2022-07-23T06:49:50;0.20;;;0.20;;
46925;SDS011;32667;48.248;-1.700;2022-07-23T06:52:15;0.20;;;0.20;;
46925;SDS011;32667;48.248;-1.700;2022-07-23T06:54:41;0.15;;;0.15;;
46925;SDS011;32667;48.248;-1.700;2022-07-23T06:57:07;0.10;;;0.10;;
46925;SDS011;32667;48.248;-1.700;2022-07-23T06:59:33;0.10;;;0.10;;
46925;SDS011;32667;48.248;-1.700;2022-07-23T07:02:01;0.20;;;0.20;;
46925;SDS011;32667;48.248;-1.700;2022-07-23T07:04:28;0.10;;;0.10;;
46925;SDS011;32667;48.248;-1.700;2022-07-23T07:06:54;0.10;;;0.10;;
46925;SDS011;32667;48.248;-1.700;2022-07-23T07:09:20;0.20;;;0.20;;
46925;SDS011;32667;48.248;-1.700;2022-07-23T07:11:45;0.10;;;0.10;;
46925;SDS011;32667;48.248;-1.700;2022-07-23T07:14:11;0.10;;;0.10;;
46925;SDS011;32667;48.248;-1.700;2022-07-23T07:16:37;0.20;;;0.20;;
46925;SDS011;32667;48.248;-1.700;2022-07-23T07:19:03;0.20;;;0.20;;
46925;SDS011;32667;48.248;-1.700;2022-07-23T07:21:28;0.20;;;0.20;;
46925;SDS011;32667;48.248;-1.700;2022-07-23T07:23:54;0.20;;;0.20;;
46925;SDS011;32667;48.248;-1.700;2022-07-23T07:26:20;0.20;;;0.20;;
46925;SDS011;32667;48.248;-1.700;2022-07-23T07:28:46;0.20;;;0.20;;
46925;SDS011;32667;48.248;-1.700;2022-07-23T07:31:11;0.10;;;0.10;;
46925;SDS011;32667;48.248;-1.700;2022-07-23T07:33:37;0.15;;;0.15;;
46925;SDS011;32667;48.248;-1.700;2022-07-23T07:36:03;0.20;;;0.20;;
46925;SDS011;32667;48.248;-1.700;2022-07-23T07:38:29;0.20;;;0.20;;
46925;SDS011;32667;48.248;-1.700;2022-07-23T07:40:55;0.20;;;0.20;;
46925;SDS011;32667;48.248;-1.700;2022-07-23T07:43:21;0.20;;;0.20;;
46925;SDS011;32667;48.248;-1.700;2022-07-23T07:45:47;0.20;;;0.20;;
46925;SDS011;32667;48.248;-1.700;2022-07-23T07:48:13;0.20;;;0.20;;
46925;SDS011;32667;48.248;-1.700;2022-07-23T07:50:39;0.13;;;0.13;;
46925;SDS011;32667;48.248;-1.700;2022-07-23T07:53:05;0.20;;;0.20;;
46925;SDS011;32667;48.248;-1.700;2022-07-23T07:55:31;0.20;;;0.20;;
46925;SDS011;32667;48.248;-1.700;2022-07-23T07:57:57;0.20;;;0.20;;
46925;SDS011;32667;48.248;-1.700;2022-07-23T08:00:23;0.20;;;0.20;;
46925;SDS011;32667;48.248;-1.700;2022-07-23T08:02:49;0.20;;;0.20;;
46925;SDS011;32667;48.248;-1.700;2022-07-23T08:05:20;0.10;;;0.10;;
46925;SDS011;32667;48.248;-1.700;2022-07-23T08:07:47;0.10;;;0.10;;
46925;SDS011;32667;48.248;-1.700;2022-07-23T08:10:13;0.10;;;0.10;;
46925;SDS011;32667;48.248;-1.700;2022-07-23T08:12:47;0.17;;;0.17;;
46925;SDS011;32667;48.248;-1.700;2022-07-23T08:15:14;0.10;;;0.10;;
46925;SDS011;32667;48.248;-1.700;2022-07-23T08:17:42;0.20;;;0.20;;
46925;SDS011;32667;48.248;-1.700;2022-07-23T08:20:09;0.10;;;0.10;;
46925;SDS011;32667;48.248;-1.700;2022-07-23T08:22:53;0.20;;;0.20;;
46925;SDS011;32667;48.248;-1.700;2022-07-23T08:25:24;0.10;;;0.10;;
46925;SDS011;32667;48.248;-1.700;2022-07-23T08:27:52;0.20;;;0.20;;
46925;SDS011;32667;48.248;-1.700;2022-07-23T08:30:18;0.10;;;0.10;;
46925;SDS011;32667;48.248;-1.700;2022-07-23T08:32:58;0.10;;;0.10;;
46925;SDS011;32667;48.248;-1.700;2022-07-23T08:35:36;0.10;;;0.10;;
46925;SDS011;32667;48.248;-1.700;2022-07-23T08:38:04;0.20;;;0.20;;
46925;SDS011;32667;48.248;-1.700;2022-07-23T08:40:33;0.13;;;0.13;;
46925;SDS011;32667;48.248;-1.700;2022-07-23T08:43:04;0.10;;;0.10;;
46925;SDS011;32667;48.248;-1.700;2022-07-23T08:45:31;0.10;;;0.10;;
46925;SDS011;32667;48.248;-1.700;2022-07-23T08:48:10;0.10;;;0.10;;
46925;SDS011;32667;48.248;-1.700;2022-07-23T08:50:47;0.20;;;0.20;;
46925;SDS011;32667;48.248;-1.700;2022-07-23T08:53:15;0.20;;;0.20;;
46925;SDS011;32667;48.248;-1.700;2022-07-23T08:55:47;0.20;;;0.20;;
46925;SDS011;32667;48.248;-1.700;2022-07-23T08:58:15;0.20;;;0.20;;
46925;SDS011;32667;48.248;-1.700;2022-07-23T09:00:42;0.10;;;0.10;;
46925;SDS011;32667;48.248;-1.700;2022-07-23T09:03:13;0.10;;;0.10;;
46925;SDS011;32667;48.248;-1.700;2022-07-23T09:05:41;0.10;;;0.10;;
46925;SDS011;32667;48.248;-1.700;2022-07-23T09:08:08;0.10;;;0.10;;
46925;SDS011;32667;48.248;-1.700;2022-07-23T09:11:15;0.10;;;0.10;;
46925;SDS011;32667;48.248;-1.700;2022-07-23T09:16:23;0.10;;;0.10;;
46925;SDS011;32667;48.248;-1.700;2022-07-23T09:18:51;0.10;;;0.10;;
46925;SDS011;32667;48.248;-1.700;2022-07-23T09:21:25;0.10;;;0.10;;
46925;SDS011;32667;48.248;-1.700;2022-07-23T09:23:59;0.10;;;0.10;;
46925;SDS011;32667;48.248;-1.700;2022-07-23T09:26:39;0.10;;;0.10;;
46925;SDS011;32667;48.248;-1.700;2022-07-23T09:29:16;0.10;;;0.10;;
46925;SDS011;32667;48.248;-1.700;2022-07-23T09:31:46;0.20;;;0.20;;
46925;SDS011;32667;48.248;-1.700;2022-07-23T09:34:23;0.10;;;0.10;;
46925;SDS011;32667;48.248;-1.700;2022-07-23T09:36:58;0.10;;;0.10;;
46925;SDS011;32667;48.248;-1.700;2022-07-23T09:39:53;0.10;;;0.10;;
46925;SDS011;32667;48.248;-1.700;2022-07-23T09:42:29;0.20;;;0.20;;
46925;SDS011;32667;48.248;-1.700;2022-07-23T09:44:56;0.20;;;0.20;;
46925;SDS011;32667;48.248;-1.700;2022-07-23T09:47:24;0.10;;;0.10;;
46925;SDS011;32667;48.248;-1.700;2022-07-23T09:55:12;0.10;;;0.10;;
46925;SDS011;32667;48.248;-1.700;2022-07-23T09:57:38;0.00;;;0.00;;
46925;SDS011;32667;48.248;-1.700;2022-07-23T10:00:07;0.10;;;0.10;;
46925;SDS011;32667;48.248;-1.700;2022-07-23T10:02:36;0.20;;;0.20;;
46925;SDS011;32667;48.248;-1.700;2022-07-23T10:05:02;0.20;;;0.20;;
46925;SDS011;32667;48.248;-1.700;2022-07-23T10:07:28;0.10;;;0.10;;
46925;SDS011;32667;48.248;-1.700;2022-07-23T10:09:58;0.10;;;0.10;;
46925;SDS011;32667;48.248;-1.700;2022-07-23T10:12:25;0.10;;;0.10;;
46925;SDS011;32667;48.248;-1.700;2022-07-23T10:15:24;0.10;;;0.10;;
46925;SDS011;32667;48.248;-1.700;2022-07-23T10:17:50;0.20;;;0.20;;
46925;SDS011;32667;48.248;-1.700;2022-07-23T10:20:16;0.10;;;0.10;;
46925;SDS011;32667;48.248;-1.700;2022-07-23T10:22:44;0.10;;;0.10;;
46925;SDS011;32667;48.248;-1.700;2022-07-23T10:25:40;0.13;;;0.13;;
46925;SDS011;32667;48.248;-1.700;2022-07-23T10:30:47;0.20;;;0.20;;
46925;SDS011;32667;48.248;-1.700;2022-07-23T10:39:08;0.10;;;0.10;;
46925;SDS011;32667;48.248;-1.700;2022-07-23T10:41:47;0.10;;;0.10;;
46925;SDS011;32667;48.248;-1.700;2022-07-23T10:44:14;0.10;;;0.10;;
46925;SDS011;32667;48.248;-1.700;2022-07-23T10:47:00;0.10;;;0.10;;
46925;SDS011;32667;48.248;-1.700;2022-07-23T10:54:47;0.20;;;0.20;;
46925;SDS011;32667;48.248;-1.700;2022-07-23T10:57:16;0.20;;;0.20;;
46925;SDS011;32667;48.248;-1.700;2022-07-23T11:02:34;0.20;;;0.20;;
46925;SDS011;32667;48.248;-1.700;2022-07-23T11:07:29;0.10;;;0.10;;
46925;SDS011;32667;48.248;-1.700;2022-07-23T11:09:56;0.10;;;0.10;;
46925;SDS011;32667;48.248;-1.700;2022-07-23T11:17:33;0.15;;;0.15;;
46925;SDS011;32667;48.248;-1.700;2022-07-23T11:20:22;0.10;;;0.10;;
46925;SDS011;32667;48.248;-1.700;2022-07-23T11:22:50;0.10;;;0.10;;
46925;SDS011;32667;48.248;-1.700;2022-07-23T11:27:49;0.10;;;0.10;;
46925;SDS011;32667;48.248;-1.700;2022-07-23T11:35:39;0.10;;;0.10;;
46925;SDS011;32667;48.248;-1.700;2022-07-23T11:38:23;0.10;;;0.10;;
46925;SDS011;32667;48.248;-1.700;2022-07-23T11:40:50;0.10;;;0.10;;
46925;SDS011;32667;48.248;-1.700;2022-07-23T11:43:18;0.10;;;0.10;;
46925;SDS011;32667;48.248;-1.700;2022-07-23T11:45:48;0.10;;;0.10;;
46925;SDS011;32667;48.248;-1.700;2022-07-23T11:48:25;0.10;;;0.10;;
46925;SDS011;32667;48.248;-1.700;2022-07-23T11:50:53;0.10;;;0.10;;
46925;SDS011;32667;48.248;-1.700;2022-07-23T11:55:51;0.10;;;0.10;;
46925;SDS011;32667;48.248;-1.700;2022-07-23T11:58:17;0.10;;;0.10;;
46925;SDS011;32667;48.248;-1.700;2022-07-23T12:00:43;0.10;;;0.10;;
46925;SDS011;32667;48.248;-1.700;2022-07-23T12:03:09;0.10;;;0.10;;
46925;SDS011;32667;48.248;-1.700;2022-07-23T12:05:36;0.10;;;0.10;;
46925;SDS011;32667;48.248;-1.700;2022-07-23T12:08:05;0.10;;;0.10;;
46925;SDS011;32667;48.248;-1.700;2022-07-23T12:13:10;0.10;;;0.10;;
46925;SDS011;32667;48.248;-1.700;2022-07-23T12:15:38;0.10;;;0.10;;
46925;SDS011;32667;48.248;-1.700;2022-07-23T12:18:11;0.08;;;0.08;;
46925;SDS011;32667;48.248;-1.700;2022-07-23T12:20:40;0.10;;;0.10;;
46925;SDS011;32667;48.248;-1.700;2022-07-23T12:23:08;0.10;;;0.10;;
46925;SDS011;32667;48.248;-1.700;2022-07-23T12:25:37;0.10;;;0.10;;
46925;SDS011;32667;48.248;-1.700;2022-07-23T12:33:14;0.10;;;0.10;;
46925;SDS011;32667;48.248;-1.700;2022-07-23T12:35:47;0.10;;;0.10;;
46925;SDS011;32667;48.248;-1.700;2022-07-23T12:38:18;0.10;;;0.10;;
46925;SDS011;32667;48.248;-1.700;2022-07-23T12:40:49;0.00;;;0.00;;
46925;SDS011;32667;48.248;-1.700;2022-07-23T12:48:17;0.00;;;0.00;;
46925;SDS011;32667;48.248;-1.700;2022-07-23T12:50:51;0.10;;;0.10;;
46925;SDS011;32667;48.248;-1.700;2022-07-23T12:53:19;0.10;;;0.10;;
46925;SDS011;32667;48.248;-1.700;2022-07-23T12:55:48;0.10;;;0.10;;
46925;SDS011;32667;48.248;-1.700;2022-07-23T12:58:16;0.10;;;0.10;;
46925;SDS011;32667;48.248;-1.700;2022-07-23T13:00:57;0.10;;;0.10;;
46925;SDS011;32667;48.248;-1.700;2022-07-23T13:03:26;0.00;;;0.00;;
46925;SDS011;32667;48.248;-1.700;2022-07-23T13:06:06;0.10;;;0.10;;
46925;SDS011;32667;48.248;-1.700;2022-07-23T13:08:36;0.08;;;0.08;;
46925;SDS011;32667;48.248;-1.700;2022-07-23T13:11:05;0.00;;;0.00;;
46925;SDS011;32667;48.248;-1.700;2022-07-23T13:13:32;0.10;;;0.10;;
46925;SDS011;32667;48.248;-1.700;2022-07-23T13:16:00;0.10;;;0.10;;
46925;SDS011;32667;48.248;-1.700;2022-07-23T13:18:27;0.00;;;0.00;;
46925;SDS011;32667;48.248;-1.700;2022-07-23T13:20:54;0.05;;;0.05;;
46925;SDS011;32667;48.248;-1.700;2022-07-23T13:23:20;0.00;;;0.00;;
46925;SDS011;32667;48.248;-1.700;2022-07-23T13:25:47;0.10;;;0.10;;
46925;SDS011;32667;48.248;-1.700;2022-07-23T13:28:13;0.10;;;0.10;;
46925;SDS011;32667;48.248;-1.700;2022-07-23T13:30:40;0.10;;;0.10;;
46925;SDS011;32667;48.248;-1.700;2022-07-23T13:33:07;0.00;;;0.00;;
46925;SDS011;32667;48.248;-1.700;2022-07-23T13:35:34;0.10;;;0.10;;
46925;SDS011;32667;48.248;-1.700;2022-07-23T13:38:03;0.00;;;0.00;;
46925;SDS011;32667;48.248;-1.700;2022-07-23T13:40:32;0.08;;;0.08;;
46925;SDS011;32667;48.248;-1.700;2022-07-23T13:42:59;0.03;;;0.03;;
46925;SDS011;32667;48.248;-1.700;2022-07-23T13:45:25;0.10;;;0.10;;
46925;SDS011;32667;48.248;-1.700;2022-07-23T13:47:52;0.10;;;0.10;;
46925;SDS011;32667;48.248;-1.700;2022-07-23T13:50:18;0.10;;;0.10;;
46925;SDS011;32667;48.248;-1.700;2022-07-23T13:52:43;0.10;;;0.10;;
46925;SDS011;32667;48.248;-1.700;2022-07-23T13:55:09;0.00;;;0.00;;
46925;SDS011;32667;48.248;-1.700;2022-07-23T13:57:35;0.10;;;0.10;;
46925;SDS011;32667;48.248;-1.700;2022-07-23T14:00:03;0.10;;;0.10;;
46925;SDS011;32667;48.248;-1.700;2022-07-23T14:02:31;0.10;;;0.10;;
46925;SDS011;32667;48.248;-1.700;2022-07-23T14:04:56;0.10;;;0.10;;
46925;SDS011;32667;48.248;-1.700;2022-07-23T14:07:22;0.10;;;0.10;;
46925;SDS011;32667;48.248;-1.700;2022-07-23T14:09:48;0.10;;;0.10;;
46925;SDS011;32667;48.248;-1.700;2022-07-23T14:12:14;0.05;;;0.05;;
46925;SDS011;32667;48.248;-1.700;2022-07-23T14:14:40;0.10;;;0.10;;
46925;SDS011;32667;48.248;-1.700;2022-07-23T14:17:07;0.10;;;0.10;;
46925;SDS011;32667;48.248;-1.700;2022-07-23T14:19:32;0.10;;;0.10;;
46925;SDS011;32667;48.248;-1.700;2022-07-23T14:21:59;0.08;;;0.08;;
46925;SDS011;32667;48.248;-1.700;2022-07-23T14:24:25;0.00;;;0.00;;
46925;SDS011;32667;48.248;-1.700;2022-07-23T14:26:51;0.00;;;0.00;;
46925;SDS011;32667;48.248;-1.700;2022-07-23T14:29:17;0.00;;;0.00;;
46925;SDS011;32667;48.248;-1.700;2022-07-23T14:31:43;0.00;;;0.00;;
46925;SDS011;32667;48.248;-1.700;2022-07-23T14:34:09;0.05;;;0.05;;
46925;SDS011;32667;48.248;-1.700;2022-07-23T14:36:36;0.10;;;0.10;;
46925;SDS011;32667;48.248;-1.700;2022-07-23T14:39:03;0.10;;;0.10;;
46925;SDS011;32667;48.248;-1.700;2022-07-23T14:41:29;0.10;;;0.10;;
46925;SDS011;32667;48.248;-1.700;2022-07-23T14:43:55;0.00;;;0.00;;
46925;SDS011;32667;48.248;-1.700;2022-07-23T14:46:21;0.08;;;0.08;;
46925;SDS011;32667;48.248;-1.700;2022-07-23T14:48:46;0.00;;;0.00;;
46925;SDS011;32667;48.248;-1.700;2022-07-23T14:51:12;0.00;;;0.00;;
46925;SDS011;32667;48.248;-1.700;2022-07-23T14:53:38;0.10;;;0.10;;
46925;SDS011;32667;48.248;-1.700;2022-07-23T14:56:04;0.00;;;0.00;;
46925;SDS011;32667;48.248;-1.700;2022-07-23T14:58:30;0.00;;;0.00;;
46925;SDS011;32667;48.248;-1.700;2022-07-23T15:00:56;0.00;;;0.00;;
46925;SDS011;32667;48.248;-1.700;2022-07-23T15:03:22;0.10;;;0.10;;
46925;SDS011;32667;48.248;-1.700;2022-07-23T15:05:49;0.00;;;0.00;;
46925;SDS011;32667;48.248;-1.700;2022-07-23T15:08:15;0.05;;;0.05;;
46925;SDS011;32667;48.248;-1.700;2022-07-23T15:10:42;0.00;;;0.00;;
46925;SDS011;32667;48.248;-1.700;2022-07-23T15:13:08;0.00;;;0.00;;
46925;SDS011;32667;48.248;-1.700;2022-07-23T15:15:34;0.00;;;0.00;;
46925;SDS011;32667;48.248;-1.700;2022-07-23T15:18:00;0.00;;;0.00;;
46925;SDS011;32667;48.248;-1.700;2022-07-23T15:20:26;0.00;;;0.00;;
46925;SDS011;32667;48.248;-1.700;2022-07-23T15:22:52;0.00;;;0.00;;
46925;SDS011;32667;48.248;-1.700;2022-07-23T15:25:17;0.00;;;0.00;;
46925;SDS011;32667;48.248;-1.700;2022-07-23T15:27:43;0.00;;;0.00;;
46925;SDS011;32667;48.248;-1.700;2022-07-23T15:30:09;0.00;;;0.00;;